createdAt,value
2022-11-08T00:02:02.726Z,0.80
2022-11-08T00:05:19.612Z,1.67
2022-11-08T00:08:31.644Z,0.88
2022-11-08T00:11:48.312Z,0.55
2022-11-08T00:14:49.756Z,1.05
2022-11-08T00:20:55.509Z,0.77
2022-11-08T00:23:57.030Z,0.45
2022-11-08T00:26:59.077Z,0.88
2022-11-08T00:30:00.486Z,1.23
2022-11-08T00:36:03.842Z,1.92
2022-11-08T00:39:05.243Z,0.90
2022-11-08T00:45:08.961Z,0.55
2022-11-08T00:48:11.241Z,0.95
2022-11-08T00:51:13.478Z,0.57
2022-11-08T00:54:16.519Z,1.20
2022-11-08T00:57:22.251Z,1.42
2022-11-08T01:00:26.162Z,0.50
2022-11-08T01:06:32.016Z,0.52
2022-11-08T01:12:35.704Z,0.90
2022-11-08T01:15:40.764Z,0.82
2022-11-08T01:18:43.603Z,1.05
2022-11-08T01:21:48.713Z,0.80
2022-11-08T01:24:50.351Z,0.45
2022-11-08T01:27:52.374Z,0.65
2022-11-08T01:30:53.818Z,0.50
2022-11-08T01:37:00.572Z,1.08
2022-11-08T01:43:35.924Z,1.30
2022-11-08T01:46:39.795Z,0.75
2022-11-08T01:49:43.562Z,0.52
2022-11-08T01:52:48.098Z,0.80
2022-11-08T01:55:49.987Z,1.38
2022-11-08T01:58:55.045Z,1.42
2022-11-08T02:01:56.867Z,0.95
2022-11-08T02:04:59.498Z,1.60
2022-11-08T02:08:05.907Z,0.63
2022-11-08T02:11:09.258Z,1.27
2022-11-08T02:14:11.780Z,0.63
2022-11-08T02:17:14.000Z,3.20
2022-11-08T02:20:15.811Z,0.95
2022-11-08T02:23:24.601Z,1.30
2022-11-08T02:26:34.648Z,2.15
2022-11-08T02:29:36.512Z,0.80
2022-11-08T02:32:39.000Z,0.90
2022-11-08T02:35:40.879Z,1.58
2022-11-08T02:38:46.292Z,0.88
2022-11-08T02:41:48.667Z,0.55
2022-11-08T02:44:50.121Z,0.60
2022-11-08T02:50:52.880Z,0.40
2022-11-08T02:56:59.628Z,0.28
2022-11-08T03:00:01.145Z,0.50
2022-11-08T03:03:03.491Z,0.40
2022-11-08T03:06:05.256Z,0.20
2022-11-08T03:09:06.978Z,0.43
2022-11-08T03:12:09.036Z,0.20
2022-11-08T03:15:11.994Z,0.20
2022-11-08T03:18:17.009Z,0.10
2022-11-08T03:21:19.035Z,0.30
2022-11-08T03:24:20.478Z,0.38
2022-11-08T03:30:23.950Z,0.20
2022-11-08T03:33:26.257Z,0.25
2022-11-08T03:36:30.833Z,0.20
2022-11-08T03:39:32.473Z,0.10
2022-11-08T03:42:34.698Z,0.10
2022-11-08T03:45:36.567Z,0.20
2022-11-08T03:48:38.586Z,0.10
2022-11-08T03:51:40.142Z,0.10
2022-11-08T03:54:41.648Z,0.15
2022-11-08T04:00:49.420Z,0.10
2022-11-08T04:06:52.285Z,0.10
2022-11-08T04:09:53.854Z,0.55
2022-11-08T04:13:11.795Z,0.40
2022-11-08T04:16:17.657Z,0.00
2022-11-08T04:19:31.779Z,0.20
2022-11-08T04:22:33.612Z,0.30
2022-11-08T04:28:39.576Z,0.20
2022-11-08T04:31:40.974Z,0.10
2022-11-08T04:34:42.393Z,0.35
2022-11-08T04:40:45.454Z,0.30
2022-11-08T04:43:48.084Z,0.30
2022-11-08T04:46:49.581Z,0.28
2022-11-08T04:49:51.860Z,0.90
2022-11-08T04:52:54.837Z,0.40
2022-11-08T04:56:01.408Z,1.10
2022-11-08T04:59:07.171Z,1.45
2022-11-08T05:02:11.244Z,1.23
2022-11-08T05:05:12.912Z,1.10
2022-11-08T05:08:14.650Z,1.23
2022-11-08T05:11:18.275Z,1.35
2022-11-08T05:14:20.436Z,1.80
2022-11-08T05:17:21.959Z,1.95
2022-11-08T05:23:43.111Z,1.83
2022-11-08T05:26:46.768Z,1.23
2022-11-08T05:29:49.123Z,0.65
2022-11-08T05:32:51.213Z,1.08
2022-11-08T05:35:52.775Z,2.05
2022-11-08T05:38:55.036Z,0.98
2022-11-08T05:41:56.588Z,1.15
2022-11-08T05:44:58.737Z,1.55
2022-11-08T05:48:02.988Z,2.05
2022-11-08T05:51:05.170Z,1.60
2022-11-08T05:54:07.559Z,1.77
2022-11-08T05:57:09.069Z,1.67
2022-11-08T06:03:13.310Z,2.42
2022-11-08T06:09:17.283Z,1.52
2022-11-08T06:21:26.716Z,2.45
2022-11-08T06:24:28.170Z,1.90
2022-11-08T06:30:34.694Z,1.55
2022-11-08T06:33:36.306Z,1.08
2022-11-08T06:36:37.843Z,2.05
2022-11-08T06:42:41.379Z,1.00
2022-11-08T06:45:43.428Z,1.92
2022-11-08T06:48:44.916Z,2.15
2022-11-08T06:54:51.954Z,1.45
2022-11-08T06:57:53.633Z,0.73
2022-11-08T07:00:58.896Z,0.50
2022-11-08T07:04:00.297Z,0.95
2022-11-08T07:07:01.726Z,1.15
2022-11-08T07:10:04.502Z,0.98
2022-11-08T07:13:09.056Z,0.40
2022-11-08T07:16:11.187Z,2.00
2022-11-08T07:19:12.688Z,1.13
2022-11-08T07:25:15.913Z,1.17
2022-11-08T07:28:18.479Z,1.27
2022-11-08T07:31:22.740Z,0.75
2022-11-08T07:34:24.209Z,0.63
2022-11-08T07:40:27.264Z,0.50
2022-11-08T07:43:30.146Z,0.52
2022-11-08T07:46:42.622Z,1.17
2022-11-08T07:49:44.088Z,1.05
2022-11-08T07:55:50.535Z,0.75
2022-11-08T07:58:52.436Z,0.90
2022-11-08T08:01:56.348Z,1.40
2022-11-08T08:04:57.809Z,1.50
2022-11-08T08:11:04.400Z,1.02
2022-11-08T08:14:05.938Z,0.93
2022-11-08T08:20:10.455Z,1.15
2022-11-08T08:23:12.164Z,1.30
2022-11-08T08:26:13.614Z,1.30
2022-11-08T08:29:16.063Z,0.73
2022-11-08T08:35:26.544Z,1.13
2022-11-08T08:38:29.537Z,0.88
2022-11-08T08:41:32.620Z,1.92
2022-11-08T08:44:36.909Z,1.15
2022-11-08T08:47:44.448Z,0.68
2022-11-08T08:50:47.414Z,1.05
2022-11-08T08:53:49.217Z,0.98
2022-11-08T08:56:52.786Z,0.82
2022-11-08T09:03:20.270Z,1.08
2022-11-08T09:06:22.987Z,0.75
2022-11-08T09:09:24.552Z,1.20
2022-11-08T09:12:26.503Z,1.13
2022-11-08T09:15:28.745Z,0.77
2022-11-08T09:18:30.610Z,0.63
2022-11-08T09:21:32.728Z,0.93
2022-11-08T09:24:35.734Z,1.13
2022-11-08T09:27:38.019Z,0.60
2022-11-08T09:30:39.507Z,0.65
2022-11-08T09:33:42.225Z,1.42
2022-11-08T09:36:44.335Z,0.60
2022-11-08T09:39:46.064Z,0.73
2022-11-08T09:42:58.946Z,0.65
2022-11-08T09:46:00.555Z,0.75
2022-11-08T09:49:05.191Z,0.47
2022-11-08T09:52:15.786Z,1.75
2022-11-08T09:55:25.972Z,0.93
2022-11-08T09:58:33.322Z,0.68
2022-11-08T10:01:36.417Z,1.52
2022-11-08T10:04:38.521Z,0.20
2022-11-08T10:07:46.071Z,0.57
2022-11-08T10:11:00.633Z,0.52
2022-11-08T10:14:22.996Z,0.47
2022-11-08T10:17:48.288Z,0.68
2022-11-08T10:20:59.489Z,1.20
2022-11-08T10:24:08.751Z,1.08
2022-11-08T10:27:15.843Z,0.82
2022-11-08T10:30:20.439Z,1.20
2022-11-08T10:33:26.827Z,1.40
2022-11-08T10:36:37.890Z,1.48
2022-11-08T10:39:45.750Z,0.38
2022-11-08T10:42:53.813Z,1.80
2022-11-08T10:45:55.447Z,0.77
2022-11-08T10:49:00.360Z,0.98
2022-11-08T10:52:16.233Z,0.75
2022-11-08T10:55:27.233Z,1.42
2022-11-08T10:58:31.693Z,0.88
2022-11-08T11:01:33.717Z,0.68
2022-11-08T11:04:36.632Z,0.90
2022-11-08T11:07:38.315Z,1.08
2022-11-08T11:10:41.959Z,0.95
2022-11-08T11:13:43.590Z,1.33
2022-11-08T11:16:54.854Z,1.33
2022-11-08T11:19:57.481Z,0.95
2022-11-08T11:23:00.282Z,1.23
2022-11-08T11:26:05.118Z,0.80
2022-11-08T11:29:17.167Z,1.60
2022-11-08T11:32:23.737Z,1.20
2022-11-08T11:35:33.345Z,2.00
2022-11-08T11:38:41.881Z,1.15
2022-11-08T11:41:50.132Z,2.17
2022-11-08T11:45:05.893Z,1.48
2022-11-08T11:48:16.016Z,1.10
2022-11-08T11:51:18.005Z,1.17
2022-11-08T11:54:19.631Z,1.05
2022-11-08T11:57:35.121Z,0.80
2022-11-08T12:00:42.243Z,0.40
2022-11-08T12:04:08.396Z,0.88
2022-11-08T12:07:23.723Z,1.15
2022-11-08T12:10:48.901Z,0.95
2022-11-08T12:14:13.513Z,1.38
2022-11-08T12:35:41.771Z,1.38
2022-11-08T12:38:55.685Z,0.80
2022-11-08T12:42:14.195Z,1.20
2022-11-08T12:45:27.216Z,0.93
2022-11-08T12:48:45.337Z,1.02
2022-11-08T12:52:00.688Z,0.80
2022-11-08T12:55:09.165Z,1.23
2022-11-08T12:58:25.410Z,1.73
2022-11-08T13:01:28.873Z,1.23
2022-11-08T13:04:39.798Z,1.48
2022-11-08T13:07:49.749Z,0.88
2022-11-08T13:10:58.762Z,1.55
2022-11-08T13:14:00.674Z,1.20
2022-11-08T13:17:19.674Z,2.30
2022-11-08T13:20:37.111Z,4.88
2022-11-08T13:23:39.272Z,1.73
2022-11-08T13:26:42.425Z,2.58
2022-11-08T13:29:44.374Z,1.98
2022-11-08T13:32:54.300Z,2.70
2022-11-08T13:36:11.296Z,2.33
2022-11-08T13:39:30.425Z,3.28
2022-11-08T13:42:57.952Z,1.65
2022-11-08T13:46:28.650Z,3.63
2022-11-08T13:49:30.283Z,2.03
2022-11-08T13:52:44.226Z,2.25
2022-11-08T13:55:48.218Z,1.83
2022-11-08T13:58:50.303Z,2.65
2022-11-08T14:02:02.692Z,1.73
2022-11-08T14:05:20.309Z,1.27
2022-11-08T14:08:26.161Z,1.58
2022-11-08T14:11:39.849Z,3.15
2022-11-08T14:14:48.877Z,1.88
2022-11-08T14:17:54.162Z,2.10
2022-11-08T14:20:56.634Z,2.10
2022-11-08T14:23:58.226Z,3.33
2022-11-08T14:27:02.568Z,3.17
2022-11-08T14:30:07.827Z,5.57
2022-11-08T14:33:18.055Z,2.00
2022-11-08T14:36:21.144Z,3.35
2022-11-08T14:39:31.259Z,2.67
2022-11-08T14:42:36.027Z,2.53
2022-11-08T14:45:46.112Z,3.38
2022-11-08T14:48:53.368Z,2.58
2022-11-08T14:52:15.363Z,1.88
2022-11-08T14:55:24.342Z,2.35
2022-11-08T14:58:30.400Z,2.50
2022-11-08T15:01:34.121Z,2.75
2022-11-08T15:04:39.664Z,2.17
2022-11-08T15:07:48.783Z,7.05
2022-11-08T15:10:58.447Z,3.45
2022-11-08T15:14:07.201Z,2.70
2022-11-08T15:17:29.714Z,2.25
2022-11-08T15:20:32.260Z,2.42
2022-11-08T15:23:40.947Z,3.33
2022-11-08T15:27:02.538Z,3.03
2022-11-08T15:30:15.670Z,3.17
2022-11-08T15:33:25.151Z,2.53
2022-11-08T15:36:34.141Z,4.65
2022-11-08T15:39:40.466Z,3.70
2022-11-08T15:42:44.815Z,2.22
2022-11-08T15:45:56.053Z,1.48
2022-11-08T15:49:02.210Z,3.28
2022-11-08T15:52:09.477Z,2.10
2022-11-08T15:55:14.497Z,1.67
2022-11-08T15:58:24.981Z,3.22
2022-11-08T16:01:31.947Z,1.55
2022-11-08T16:04:38.392Z,2.03
2022-11-08T16:07:39.990Z,2.25
2022-11-08T16:10:46.791Z,1.92
2022-11-08T16:13:51.148Z,2.10
2022-11-08T16:16:54.947Z,1.75
2022-11-08T16:19:56.478Z,2.05
2022-11-08T16:23:04.377Z,1.27
2022-11-08T16:26:12.630Z,2.22
2022-11-08T16:29:22.565Z,0.60
2022-11-08T16:32:26.043Z,2.35
2022-11-08T16:35:31.712Z,0.98
2022-11-08T16:38:37.153Z,1.88
2022-11-08T16:41:42.626Z,1.63
2022-11-08T16:44:44.483Z,1.83
2022-11-08T16:47:50.683Z,1.27
2022-11-08T16:50:58.225Z,1.35
2022-11-08T16:54:02.445Z,1.65
2022-11-08T16:57:28.448Z,1.90
2022-11-08T17:00:25.336Z,1.25
2022-11-08T17:03:29.947Z,0.63
2022-11-08T17:06:31.468Z,1.73
2022-11-08T17:09:32.919Z,1.50
2022-11-08T17:15:35.735Z,1.50
2022-11-08T17:18:37.947Z,1.30
2022-11-08T17:21:46.749Z,1.27
2022-11-08T17:24:48.412Z,1.50
2022-11-08T17:27:50.763Z,1.38
2022-11-08T17:30:52.152Z,1.17
2022-11-08T17:33:54.737Z,1.08
2022-11-08T17:36:56.185Z,1.67
2022-11-08T17:42:58.948Z,0.93
2022-11-08T17:49:03.466Z,0.90
2022-11-08T17:52:08.364Z,1.42
2022-11-08T17:55:11.583Z,1.85
2022-11-08T17:58:13.540Z,1.55
2022-11-08T18:01:15.767Z,1.67
2022-11-08T18:04:20.297Z,2.30
2022-11-08T18:07:27.789Z,0.80
2022-11-08T18:10:29.730Z,1.90
2022-11-08T18:13:33.655Z,1.80
2022-11-08T18:16:37.070Z,1.35
2022-11-08T18:19:39.291Z,1.00
2022-11-08T18:22:41.113Z,1.00
2022-11-08T18:25:48.080Z,1.55
2022-11-08T18:28:49.630Z,2.55
2022-11-08T18:31:51.084Z,2.13
2022-11-08T18:34:53.627Z,1.73
2022-11-08T18:37:55.281Z,0.55
2022-11-08T18:40:57.154Z,1.65
2022-11-08T18:43:59.801Z,0.95
2022-11-08T18:47:05.376Z,0.93
2022-11-08T18:50:08.840Z,0.63
2022-11-08T18:53:10.440Z,1.17
2022-11-08T18:56:13.987Z,0.73
2022-11-08T18:59:16.816Z,0.70
2022-11-08T19:02:19.636Z,0.73
2022-11-08T19:05:22.814Z,1.48
2022-11-08T19:08:26.337Z,0.63
2022-11-08T19:11:29.789Z,0.68
2022-11-08T19:14:31.283Z,0.30
2022-11-08T19:17:35.517Z,0.70
2022-11-08T19:20:37.801Z,0.88
2022-11-08T19:23:39.807Z,0.93
2022-11-08T19:26:41.620Z,0.38
2022-11-08T19:29:43.145Z,0.60
2022-11-08T19:38:48.645Z,0.60
2022-11-08T19:41:50.769Z,1.10
2022-11-08T19:44:52.569Z,0.57
2022-11-08T19:47:54.145Z,0.40
2022-11-08T19:50:56.565Z,0.32
2022-11-08T19:54:00.830Z,1.05
2022-11-08T19:57:04.663Z,0.38
2022-11-08T20:00:09.588Z,0.52
2022-11-08T20:03:13.852Z,0.70
2022-11-08T20:06:18.706Z,0.57
2022-11-08T20:09:21.340Z,1.23
2022-11-08T20:12:25.105Z,0.50
2022-11-08T20:18:28.406Z,0.73
2022-11-08T20:21:33.784Z,0.60
2022-11-08T20:24:35.930Z,0.82
2022-11-08T20:27:37.630Z,0.82
2022-11-08T20:30:40.691Z,0.77
2022-11-08T20:33:42.749Z,0.70
2022-11-08T20:36:44.856Z,3.33
2022-11-08T20:39:46.320Z,1.10
2022-11-08T20:45:49.550Z,0.80
2022-11-08T20:48:53.601Z,0.47
2022-11-08T20:51:56.187Z,0.57
2022-11-08T20:55:00.780Z,0.77
2022-11-08T20:58:02.436Z,0.95
2022-11-08T21:01:06.476Z,1.30
2022-11-08T21:04:08.178Z,0.60
2022-11-08T21:10:47.686Z,0.70
2022-11-08T21:13:49.573Z,0.38
2022-11-08T21:17:21.389Z,1.05
2022-11-08T21:20:13.882Z,0.70
2022-11-08T21:23:16.184Z,0.68
2022-11-08T21:26:18.894Z,0.60
2022-11-08T21:29:20.821Z,0.82
2022-11-08T21:32:22.392Z,0.93
2022-11-08T21:35:23.941Z,0.73
2022-11-08T21:38:26.792Z,0.40
2022-11-08T21:41:28.688Z,1.33
2022-11-08T21:47:32.346Z,1.10
2022-11-08T21:50:34.562Z,0.60
2022-11-08T21:53:42.872Z,1.58
2022-11-08T21:56:49.581Z,1.13
2022-11-08T22:02:56.174Z,1.80
2022-11-08T22:05:57.664Z,2.20
2022-11-08T22:12:01.390Z,2.35
2022-11-08T22:15:03.973Z,1.98
2022-11-08T22:18:36.870Z,0.70
2022-11-08T22:21:38.869Z,1.05
2022-11-08T22:24:44.278Z,1.75
2022-11-08T22:27:45.997Z,2.22
2022-11-08T22:30:50.339Z,2.03
2022-11-08T22:33:52.000Z,3.47
2022-11-08T22:36:53.480Z,4.70
2022-11-08T22:42:57.116Z,2.95
2022-11-08T22:49:00.456Z,1.65
2022-11-08T22:52:02.077Z,1.83
2022-11-08T22:55:05.259Z,2.85
2022-11-08T22:58:06.759Z,2.20
2022-11-08T23:04:15.165Z,2.08
2022-11-08T23:07:16.719Z,2.90
2022-11-08T23:10:19.138Z,2.75
2022-11-08T23:13:35.274Z,2.60
2022-11-08T23:16:40.094Z,2.72
2022-11-08T23:19:56.547Z,2.80
2022-11-08T23:23:12.957Z,1.92
2022-11-08T23:26:37.999Z,1.45
2022-11-08T23:29:54.416Z,2.90
2022-11-08T23:32:59.067Z,1.92
2022-11-08T23:36:15.253Z,2.40
2022-11-08T23:39:16.735Z,1.17
2022-11-08T23:45:34.884Z,1.63
2022-11-08T23:48:37.495Z,1.75
2022-11-08T23:51:39.056Z,1.92
2022-11-08T23:54:40.547Z,1.90
